Time;durP1;ratioP1;P1;durP2;ratioP2;P2;SDS_P1;SDS_P2;PMS_P1;PMS_P2;Temp;Humidity;BMP_temperature;BMP_pressure;BME280_temperature;BME280_humidity;BME280_pressure;Samples;Min_cycle;Max_cycle;Signal;HPM_P1;HPM_P2
2023/05/30 00:01:06;;;;;;;12.50;2.92;;;;;;;12.74;49.73;101552.03;5075420;28;20056;-53
2023/05/30 00:03:35;;;;;;;9.20;2.58;;;;;;;12.72;49.88;101549.47;5067270;28;20139;-50
2023/05/30 00:06:02;;;;;;;8.98;2.70;;;;;;;12.71;49.46;101553.06;5071462;28;20622;-54
2023/05/30 00:08:30;;;;;;;8.77;2.65;;;;;;;12.70;50.08;101554.00;5067108;28;20068;-53
2023/05/30 00:10:57;;;;;;;6.65;2.45;;;;;;;12.67;50.12;101555.00;5070503;28;20163;-56
2023/05/30 00:13:28;;;;;;;8.73;2.58;;;;;;;12.64;50.22;101549.88;5072262;28;20854;-53
2023/05/30 00:15:59;;;;;;;6.45;2.22;;;;;;;12.61;50.45;101546.56;5066556;28;20075;-57
2023/05/30 00:18:34;;;;;;;6.60;2.05;;;;;;;12.56;50.22;101545.91;5073354;28;20139;-52
2023/05/30 00:21:09;;;;;;;7.33;2.77;;;;;;;12.54;50.78;101555.72;5076724;28;20144;-57
2023/05/30 00:23:37;;;;;;;5.40;2.28;;;;;;;12.52;50.86;101552.28;5085110;22;20052;-61
2023/05/30 00:26:08;;;;;;;10.45;2.80;;;;;;;12.50;51.22;101560.31;5043609;28;20135;-58
2023/05/30 00:28:36;;;;;;;8.13;2.50;;;;;;;12.49;51.44;101560.41;5066945;28;20049;-56
2023/05/30 00:31:03;;;;;;;8.15;2.42;;;;;;;12.45;51.48;101546.50;5072253;28;20087;-60
2023/05/30 00:33:31;;;;;;;5.72;2.22;;;;;;;12.43;52.08;101556.28;5064856;28;20072;-54
2023/05/30 00:35:58;;;;;;;5.70;2.13;;;;;;;12.41;51.93;101558.16;5069152;28;20480;-54
2023/05/30 00:38:26;;;;;;;8.93;2.28;;;;;;;12.38;52.42;101553.00;5051790;28;20052;-58
2023/05/30 00:40:53;;;;;;;6.10;2.42;;;;;;;12.34;52.73;101560.25;5073072;28;20527;-57
2023/05/30 00:43:21;;;;;;;13.38;3.05;;;;;;;12.30;52.87;101561.34;5068480;28;20048;-58
2023/05/30 00:45:52;;;;;;;10.63;2.50;;;;;;;12.26;53.20;101556.31;5070025;28;20144;-57
2023/05/30 00:48:20;;;;;;;5.47;2.00;;;;;;;12.23;53.45;101567.00;5052915;28;20139;-60
2023/05/30 00:50:48;;;;;;;7.20;2.70;;;;;;;12.20;53.65;101568.00;5052707;28;20571;-56
2023/05/30 00:53:15;;;;;;;7.65;2.42;;;;;;;12.16;53.87;101554.13;5059066;28;20045;-57
2023/05/30 00:55:43;;;;;;;4.72;2.70;;;;;;;12.13;54.06;101554.28;5071493;28;20548;-58
2023/05/30 00:58:11;;;;;;;8.60;2.65;;;;;;;12.10;53.87;101561.50;5070332;28;20074;-59
2023/05/30 01:00:39;;;;;;;6.15;2.47;;;;;;;12.05;53.97;101558.22;5073402;28;20211;-55
2023/05/30 01:03:08;;;;;;;5.07;1.95;;;;;;;12.03;54.21;101550.41;5052138;28;20053;-59
2023/05/30 01:05:36;;;;;;;9.80;2.95;;;;;;;12.01;53.77;101554.03;5035078;28;20172;-58
2023/05/30 01:08:03;;;;;;;6.65;2.08;;;;;;;11.97;53.82;101552.47;5066367;28;20049;-58
2023/05/30 01:10:31;;;;;;;8.55;3.05;;;;;;;11.95;53.87;101554.34;5066175;28;20044;-61
2023/05/30 01:13:07;;;;;;;6.03;2.55;;;;;;;11.91;54.04;101562.41;5050280;28;20044;-57
2023/05/30 01:15:48;;;;;;;9.88;2.55;;;;;;;11.90;53.98;101562.50;5073128;28;20076;-56
2023/05/30 01:18:37;;;;;;;8.70;2.38;;;;;;;11.86;53.70;101563.56;5038152;28;20143;-56
2023/05/30 01:21:15;;;;;;;10.52;2.58;;;;;;;11.85;53.64;101565.38;5055660;28;20080;-57
2023/05/30 01:24:07;;;;;;;7.95;2.38;;;;;;;11.86;53.86;101568.84;5071521;28;20086;-57
2023/05/30 01:26:49;;;;;;;8.15;2.65;;;;;;;11.83;54.41;101564.56;5069973;28;20785;-57
2023/05/30 01:29:20;;;;;;;6.57;2.22;;;;;;;11.79;54.59;101559.50;5051942;28;20145;-57
2023/05/30 01:31:47;;;;;;;4.13;1.75;;;;;;;11.77;54.77;101566.63;5067940;28;20461;-59
2023/05/30 01:34:15;;;;;;;5.00;2.05;;;;;;;11.74;54.73;101570.25;5052536;28;20147;-58
2023/05/30 01:36:42;;;;;;;7.68;2.35;;;;;;;11.70;54.97;101576.63;5067635;28;20139;-58
2023/05/30 01:39:09;;;;;;;8.50;2.97;;;;;;;11.68;54.92;101578.50;5071390;28;20148;-59
2023/05/30 01:41:41;;;;;;;9.45;3.00;;;;;;;11.65;54.85;101576.84;5070941;28;20083;-59
2023/05/30 01:44:18;;;;;;;6.70;2.75;;;;;;;11.63;55.22;101578.72;5048989;28;20565;-57
2023/05/30 01:46:55;;;;;;;7.78;2.78;;;;;;;11.59;55.63;101568.38;5051323;28;20738;-58
2023/05/30 01:49:45;;;;;;;8.40;2.35;;;;;;;11.54;56.02;101576.50;5065451;28;20075;-59
2023/05/30 01:52:17;;;;;;;8.65;2.70;;;;;;;11.47;56.03;101579.50;5063615;28;20462;-55
2023/05/30 01:54:48;;;;;;;8.55;2.65;;;;;;;11.45;56.35;101576.94;5056532;28;20075;-60
2023/05/30 01:57:16;;;;;;;10.23;2.72;;;;;;;11.43;56.50;101578.78;5070445;28;20453;-59
2023/05/30 01:59:44;;;;;;;7.07;2.65;;;;;;;11.41;56.95;101581.50;5053035;28;20147;-58
2023/05/30 02:02:12;;;;;;;4.57;2.25;;;;;;;11.36;56.83;101580.88;5053147;28;20135;-59
2023/05/30 02:04:39;;;;;;;9.25;2.80;;;;;;;11.35;57.37;101567.78;5052164;28;20261;-56
2023/05/30 02:07:06;;;;;;;8.52;2.58;;;;;;;11.33;57.55;101580.16;5069783;28;20148;-58
2023/05/30 02:09:33;;;;;;;7.70;2.65;;;;;;;11.29;57.91;101570.69;5067892;28;20107;-58
2023/05/30 02:12:02;;;;;;;7.10;2.33;;;;;;;11.24;58.12;101570.88;5051851;28;20072;-55
2023/05/30 02:14:30;;;;;;;7.38;2.53;;;;;;;11.21;57.72;101571.03;5067693;28;20127;-58
2023/05/30 02:16:59;;;;;;;9.55;3.05;;;;;;;11.19;57.82;101577.31;5069360;28;20075;-62
2023/05/30 02:19:51;;;;;;;6.22;2.75;;;;;;;11.16;58.07;101579.16;5069183;28;20133;-57
2023/05/30 02:22:20;;;;;;;8.00;3.03;;;;;;;11.13;58.36;101578.47;5065825;28;20112;-57
2023/05/30 02:24:47;;;;;;;7.20;2.47;;;;;;;11.10;58.54;101576.81;5067678;28;20060;-59
2023/05/30 02:27:15;;;;;;;7.40;2.30;;;;;;;11.09;58.38;101579.53;5067822;28;20082;-56
2023/05/30 02:29:42;;;;;;;4.55;2.47;;;;;;;11.07;59.18;101574.31;5063938;28;20052;-58
2023/05/30 02:32:10;;;;;;;8.38;2.65;;;;;;;11.04;59.20;101574.47;5051582;28;20074;-58
2023/05/30 02:34:37;;;;;;;6.95;2.20;;;;;;;11.00;59.63;101569.41;5068602;28;20125;-61
2023/05/30 02:37:05;;;;;;;7.43;2.65;;;;;;;10.96;59.88;101573.09;5071076;28;20056;-60
2023/05/30 02:39:32;;;;;;;8.95;2.90;;;;;;;10.93;59.58;101573.22;5075803;28;20044;-57
2023/05/30 02:42:00;;;;;;;9.73;2.80;;;;;;;10.90;60.07;101568.97;5055065;28;20343;-60
2023/05/30 02:44:27;;;;;;;11.32;2.80;;;;;;;10.90;60.26;101568.97;5064330;28;20088;-55
2023/05/30 02:46:54;;;;;;;9.10;3.15;;;;;;;10.88;60.70;101568.16;5069905;28;20496;-57
2023/05/30 02:49:22;;;;;;;8.80;2.38;;;;;;;10.85;60.53;101561.28;5068178;28;20051;-58
2023/05/30 02:51:49;;;;;;;6.75;2.30;;;;;;;10.84;60.58;101571.84;5049275;28;20094;-56
2023/05/30 02:54:16;;;;;;;6.40;2.53;;;;;;;10.81;60.96;101575.50;5068344;28;20147;-56
2023/05/30 02:56:43;;;;;;;8.82;3.13;;;;;;;10.80;61.23;101573.75;5034304;28;20599;-57
2023/05/30 02:59:11;;;;;;;7.63;2.83;;;;;;;10.82;61.38;101568.44;5067391;28;20063;-55
2023/05/30 03:01:38;;;;;;;10.52;3.17;;;;;;;10.80;62.05;101576.41;5050864;28;20658;-56
2023/05/30 03:04:06;;;;;;;7.43;2.10;;;;;;;10.80;62.16;101578.19;5064601;28;20567;-60
2023/05/30 03:06:35;;;;;;;7.32;2.25;;;;;;;10.81;62.08;101572.00;5050289;28;20112;-54
2023/05/30 03:09:03;;;;;;;5.38;1.90;;;;;;;10.79;62.32;101577.34;5065445;28;20135;-57
2023/05/30 03:11:30;;;;;;;7.88;2.70;;;;;;;10.80;62.20;101572.91;5061524;28;20764;-55
2023/05/30 03:13:58;;;;;;;10.02;2.55;;;;;;;10.81;62.32;101585.19;5061568;28;20133;-59
2023/05/30 03:16:26;;;;;;;11.52;3.10;;;;;;;10.81;62.29;101587.81;5067643;28;20467;-58
2023/05/30 03:18:54;;;;;;;8.70;2.95;;;;;;;10.80;62.24;101588.72;5064516;28;20124;-60
2023/05/30 03:21:23;;;;;;;7.82;2.72;;;;;;;10.79;62.31;101589.66;5061027;28;20486;-56
2023/05/30 03:23:51;;;;;;;7.30;2.38;;;;;;;10.82;62.10;101595.66;5050114;28;20067;-58
2023/05/30 03:26:18;;;;;;;9.60;3.17;;;;;;;10.84;61.90;101593.78;5069366;28;20131;-61
2023/05/30 03:28:46;;;;;;;6.38;2.50;;;;;;;10.86;62.47;101596.38;5063382;28;20080;-58
2023/05/30 03:31:13;;;;;;;10.68;3.25;;;;;;;10.88;62.22;101599.78;5067751;28;20149;-61
2023/05/30 03:33:41;;;;;;;8.23;2.42;;;;;;;10.90;62.17;101600.59;5068345;28;20044;-57
2023/05/30 03:36:10;;;;;;;5.82;2.33;;;;;;;10.90;62.44;101597.94;5065872;28;20056;-59
2023/05/30 03:38:38;;;;;;;11.63;3.65;;;;;;;10.94;62.08;101596.00;5063537;28;20072;-56
2023/05/30 03:41:05;;;;;;;6.53;2.53;;;;;;;10.96;62.25;101602.94;5049633;28;20474;-59
2023/05/30 03:43:32;;;;;;;6.03;2.20;;;;;;;11.01;62.34;101600.94;5066039;28;20044;-58
2023/05/30 03:45:59;;;;;;;19.40;3.10;;;;;;;11.04;62.28;101605.22;5066050;28;20110;-58
2023/05/30 03:48:27;;;;;;;11.30;3.25;;;;;;;11.06;62.66;101601.59;5060210;28;20040;-57
2023/05/30 03:50:54;;;;;;;8.57;2.95;;;;;;;11.09;62.88;101606.72;5066966;28;20117;-57
2023/05/30 03:53:22;;;;;;;9.82;2.55;;;;;;;11.11;62.43;101606.66;5050021;28;20437;-57
2023/05/30 03:55:49;;;;;;;9.90;2.70;;;;;;;11.14;62.51;101612.63;5064103;28;20470;-57
2023/05/30 03:58:16;;;;;;;16.02;3.28;;;;;;;11.20;62.57;101608.00;5069535;28;20719;-53
2023/05/30 04:00:43;;;;;;;12.13;3.33;;;;;;;11.26;62.35;101613.03;5069682;28;20044;-57
2023/05/30 04:03:11;;;;;;;9.70;2.63;;;;;;;11.31;62.04;101616.28;5068895;28;20056;-60
2023/05/30 04:05:39;;;;;;;11.27;3.45;;;;;;;11.35;62.09;101612.59;5057456;28;20679;-59
2023/05/30 04:08:06;;;;;;;9.07;3.20;;;;;;;11.39;62.40;101624.69;5071895;28;20412;-54
2023/05/30 04:10:34;;;;;;;9.98;2.92;;;;;;;11.44;62.22;101627.09;5061030;28;20116;-55
2023/05/30 04:13:01;;;;;;;9.95;2.85;;;;;;;11.48;61.81;101629.53;5071331;28;20964;-59
2023/05/30 04:15:28;;;;;;;9.45;2.70;;;;;;;11.51;62.14;101633.81;5052881;28;20116;-55
2023/05/30 04:17:57;;;;;;;10.65;3.22;;;;;;;11.56;62.27;101623.91;5069565;28;20139;-61
2023/05/30 04:20:25;;;;;;;8.35;2.50;;;;;;;11.59;62.14;101631.69;5070335;28;20060;-57
2023/05/30 04:22:52;;;;;;;10.63;2.95;;;;;;;11.64;61.84;101619.97;5066489;28;20072;-56
2023/05/30 04:25:20;;;;;;;7.72;3.05;;;;;;;11.72;62.12;101631.97;5034379;28;20072;-58
2023/05/30 04:27:48;;;;;;;11.00;2.95;;;;;;;11.75;62.06;101631.78;5067516;28;20574;-54
2023/05/30 04:30:17;;;;;;;6.93;2.40;;;;;;;11.80;62.09;101628.03;5068242;28;20047;-56
2023/05/30 04:32:45;;;;;;;8.80;3.00;;;;;;;11.84;61.70;101627.00;5066673;28;20064;-58
2023/05/30 04:35:15;;;;;;;8.50;2.78;;;;;;;11.85;62.05;101636.59;5069993;28;20477;-60
2023/05/30 04:37:44;;;;;;;8.35;2.92;;;;;;;11.92;62.06;101637.16;5066083;28;20052;-55
2023/05/30 04:40:12;;;;;;;8.80;3.22;;;;;;;12.00;61.54;101636.78;5066797;28;20561;-58
2023/05/30 04:42:41;;;;;;;6.43;2.60;;;;;;;12.08;61.34;101634.63;5068636;28;20055;-58
2023/05/30 04:45:09;;;;;;;6.78;3.13;;;;;;;12.16;61.15;101638.59;5070906;28;20132;-59
2023/05/30 04:47:38;;;;;;;10.48;2.75;;;;;;;12.24;60.38;101640.00;5070966;28;20140;-58
2023/05/30 04:50:06;;;;;;;7.05;2.72;;;;;;;12.32;60.66;101645.75;5054453;28;20087;-58
2023/05/30 04:52:34;;;;;;;10.88;2.60;;;;;;;12.36;60.62;101645.53;5069265;28;20617;-56
2023/05/30 04:55:01;;;;;;;10.55;3.33;;;;;;;12.43;59.77;101643.44;5066434;28;20049;-55
2023/05/30 04:57:28;;;;;;;9.57;2.65;;;;;;;12.49;59.48;101650.19;5069679;28;20056;-57
2023/05/30 04:59:55;;;;;;;8.63;3.00;;;;;;;12.55;59.22;101645.44;5061542;28;20068;-55
2023/05/30 05:02:23;;;;;;;8.30;2.40;;;;;;;12.63;58.09;101650.34;5064171;28;20174;-60
2023/05/30 05:04:50;;;;;;;11.18;2.40;;;;;;;12.72;57.85;101647.22;5069928;28;20469;-60
2023/05/30 05:07:17;;;;;;;10.40;2.55;;;;;;;12.83;57.68;101649.31;5052195;28;20747;-59
2023/05/30 05:10:00;;;;;;;6.15;2.25;;;;;;;12.90;57.50;101648.91;5066238;28;20052;-54
2023/05/30 05:12:27;;;;;;;8.50;2.70;;;;;;;12.99;56.46;101646.72;5067683;28;20508;-57
2023/05/30 05:14:55;;;;;;;8.05;2.50;;;;;;;13.07;56.36;101644.53;5066787;28;20429;-57
2023/05/30 05:17:22;;;;;;;11.95;3.05;;;;;;;13.18;56.16;101652.72;5063866;28;20076;-55
2023/05/30 05:19:49;;;;;;;6.82;3.00;;;;;;;13.25;56.25;101653.31;5067596;28;20331;-58
2023/05/30 05:22:17;;;;;;;7.82;2.65;;;;;;;13.34;55.66;101650.16;5043787;28;20079;-56
2023/05/30 05:24:44;;;;;;;13.43;2.70;;;;;;;13.38;55.63;101654.34;5067069;28;21632;-56
2023/05/30 05:27:12;;;;;;;7.13;2.70;;;;;;;13.43;55.88;101657.59;5067504;28;20075;-56
2023/05/30 05:29:39;;;;;;;8.63;2.92;;;;;;;13.41;55.37;101651.53;5067351;28;20132;-58
2023/05/30 05:32:07;;;;;;;11.55;3.40;;;;;;;13.48;55.00;101663.50;5062467;28;20440;-56
2023/05/30 05:34:34;;;;;;;10.85;3.03;;;;;;;13.56;55.19;101665.72;5067351;28;20068;-58
2023/05/30 05:37:02;;;;;;;8.93;3.05;;;;;;;13.68;54.82;101670.31;5066397;28;20580;-60
2023/05/30 05:39:29;;;;;;;15.02;3.25;;;;;;;13.78;54.58;101653.03;5066075;28;20137;-56
2023/05/30 05:41:56;;;;;;;8.95;2.97;;;;;;;13.87;53.92;101660.44;5049028;28;20127;-59
2023/05/30 05:44:23;;;;;;;6.93;2.72;;;;;;;14.03;53.94;101668.34;5067192;28;20108;-57
2023/05/30 05:46:51;;;;;;;8.65;2.95;;;;;;;14.15;53.47;101670.31;5064563;28;20086;-59
2023/05/30 05:49:18;;;;;;;8.68;2.55;;;;;;;14.28;53.32;101664.31;5066588;28;20095;-58
2023/05/30 05:51:45;;;;;;;7.40;2.33;;;;;;;14.39;52.74;101669.84;5045939;28;20049;-60
2023/05/30 05:54:13;;;;;;;8.93;2.22;;;;;;;14.50;52.23;101663.94;5060463;28;20248;-59
2023/05/30 05:56:40;;;;;;;10.60;3.20;;;;;;;14.49;51.36;101665.72;5065775;28;20052;-58
2023/05/30 05:59:07;;;;;;;10.98;3.17;;;;;;;14.54;51.52;101662.81;5076164;28;20067;-55
2023/05/30 06:01:35;;;;;;;8.43;2.42;;;;;;;14.65;51.43;101663.88;5068264;28;20131;-56
2023/05/30 06:04:09;;;;;;;6.97;2.85;;;;;;;14.74;51.12;101662.50;5067408;28;20057;-56
2023/05/30 06:06:36;;;;;;;7.93;2.40;;;;;;;14.85;50.95;101669.78;5064455;28;20048;-56
2023/05/30 06:09:03;;;;;;;9.93;3.22;;;;;;;14.89;50.17;101666.00;5066598;28;20102;-57
2023/05/30 06:11:31;;;;;;;8.45;2.65;;;;;;;14.98;50.19;101669.91;5060757;28;20044;-60
2023/05/30 06:13:58;;;;;;;9.00;2.30;;;;;;;15.02;49.57;101674.06;5067817;28;20134;-60
2023/05/30 06:16:25;;;;;;;10.73;2.92;;;;;;;15.13;49.61;101674.25;5065722;28;20156;-60
2023/05/30 06:18:53;;;;;;;12.02;2.58;;;;;;;15.29;48.86;101669.72;5066132;28;20112;-60
2023/05/30 06:21:20;;;;;;;14.70;2.95;;;;;;;15.35;48.67;101673.78;5067662;28;20052;-60
2023/05/30 06:23:47;;;;;;;7.50;3.00;;;;;;;15.40;48.53;101677.88;5066396;28;20133;-61
2023/05/30 06:26:14;;;;;;;5.32;1.98;;;;;;;15.49;48.14;101676.47;5065279;28;20083;-58
2023/05/30 06:28:42;;;;;;;8.32;2.70;;;;;;;15.58;48.09;101677.66;5058961;28;20182;-60
2023/05/30 06:31:09;;;;;;;10.25;2.53;;;;;;;15.68;48.01;101677.03;5060169;28;20059;-58
2023/05/30 06:33:36;;;;;;;7.18;2.22;;;;;;;15.78;47.89;101681.75;5063027;28;20056;-59
2023/05/30 06:36:03;;;;;;;7.15;2.50;;;;;;;15.88;47.46;101675.72;5065887;28;20539;-59
2023/05/30 06:38:31;;;;;;;7.63;2.60;;;;;;;15.95;47.33;101677.06;5045945;28;20162;-60
2023/05/30 06:40:58;;;;;;;12.55;2.75;;;;;;;16.05;47.24;101679.13;5066952;28;20489;-59
2023/05/30 06:43:25;;;;;;;13.00;2.97;;;;;;;16.14;46.45;101679.34;5067159;28;20063;-59
2023/05/30 06:45:53;;;;;;;13.68;2.83;;;;;;;16.26;46.51;101674.22;5063141;28;20208;-60
2023/05/30 06:48:20;;;;;;;8.48;1.98;;;;;;;16.37;46.43;101683.16;5066371;28;20215;-59
2023/05/30 06:50:47;;;;;;;6.88;2.45;;;;;;;16.49;46.07;101680.66;5070007;28;20491;-60
2023/05/30 06:53:16;;;;;;;4.55;2.03;;;;;;;16.62;45.97;101692.16;5060872;28;20052;-58
2023/05/30 06:55:43;;;;;;;9.98;2.38;;;;;;;16.69;45.69;101693.44;5060407;28;20562;-57
2023/05/30 06:58:12;;;;;;;9.13;1.83;;;;;;;16.78;45.80;101698.16;5071111;28;20076;-61
2023/05/30 07:00:40;;;;;;;9.25;2.10;;;;;;;16.91;45.68;101700.84;5065342;28;20528;-60
2023/05/30 07:03:07;;;;;;;6.68;2.05;;;;;;;16.98;45.46;101690.66;5060436;28;20151;-60
2023/05/30 07:05:34;;;;;;;9.98;2.88;;;;;;;17.00;45.20;101694.03;5050498;28;20461;-56
2023/05/30 07:08:02;;;;;;;8.05;2.45;;;;;;;17.08;45.13;101692.56;5067080;28;20139;-56
2023/05/30 07:10:29;;;;;;;11.93;2.35;;;;;;;17.17;45.11;101699.91;5066530;28;20044;-54
2023/05/30 07:12:56;;;;;;;11.90;2.88;;;;;;;17.22;45.11;101702.25;5065092;28;20067;-60
2023/05/30 07:15:25;;;;;;;5.20;1.60;;;;;;;17.39;44.95;101701.06;5060799;28;20128;-59
2023/05/30 07:17:52;;;;;;;20.98;2.58;;;;;;;17.53;44.61;101698.28;5064000;28;20049;-59
2023/05/30 07:20:23;;;;;;;9.02;2.17;;;;;;;17.66;44.25;101696.44;5066352;28;20083;-60
2023/05/30 07:22:50;;;;;;;7.45;2.30;;;;;;;17.77;44.14;101698.34;5066327;28;20057;-58
2023/05/30 07:25:18;;;;;;;6.55;1.83;;;;;;;17.85;43.57;101701.31;5063915;28;20520;-59
2023/05/30 07:27:45;;;;;;;6.93;1.90;;;;;;;17.82;43.49;101701.53;5063380;28;20147;-60
2023/05/30 07:30:12;;;;;;;7.72;2.33;;;;;;;17.84;43.42;101696.94;5065554;28;20151;-59
2023/05/30 07:32:39;;;;;;;8.45;2.13;;;;;;;17.99;43.34;101700.31;5066096;28;20053;-57
2023/05/30 07:35:07;;;;;;;7.38;2.25;;;;;;;18.09;42.82;101706.66;5048516;28;20088;-59
2023/05/30 07:37:36;;;;;;;7.45;2.30;;;;;;;18.21;42.75;101705.75;5061338;28;21298;-59
2023/05/30 07:40:05;;;;;;;7.57;2.30;;;;;;;18.31;42.76;101710.41;5045398;28;20127;-58
2023/05/30 07:42:38;;;;;;;9.30;2.00;;;;;;;18.36;41.29;101708.25;5062743;28;20051;-60
2023/05/30 07:45:06;;;;;;;8.15;2.00;;;;;;;18.36;41.59;101708.25;5060492;28;20546;-57
2023/05/30 07:47:33;;;;;;;6.82;1.83;;;;;;;18.44;41.17;101705.88;5063651;28;20059;-59
2023/05/30 07:50:00;;;;;;;6.18;1.70;;;;;;;18.48;40.70;101705.53;5066070;28;20078;-60
2023/05/30 07:52:27;;;;;;;5.40;1.75;;;;;;;18.59;40.58;101707.38;5064916;28;20083;-56
2023/05/30 07:54:55;;;;;;;5.47;1.75;;;;;;;18.66;39.99;101705.09;5045962;28;20166;-58
2023/05/30 07:57:22;;;;;;;9.00;2.70;;;;;;;18.78;39.58;101708.66;5052279;28;20099;-60
2023/05/30 07:59:49;;;;;;;8.30;1.80;;;;;;;18.86;39.40;101711.59;5068326;28;20112;-59
2023/05/30 08:02:18;;;;;;;4.22;1.92;;;;;;;18.93;39.45;101707.50;5062610;28;20147;-58
2023/05/30 08:04:45;;;;;;;4.30;1.52;;;;;;;19.02;39.59;101712.13;5061327;28;20148;-60
2023/05/30 08:07:13;;;;;;;6.43;2.10;;;;;;;19.09;39.31;101710.69;5061816;28;20044;-59
2023/05/30 08:09:40;;;;;;;8.35;1.70;;;;;;;19.19;39.11;101706.34;5062098;28;20072;-59
2023/05/30 08:12:16;;;;;;;5.47;2.35;;;;;;;19.30;38.78;101702.81;5060553;28;20094;-58
2023/05/30 08:14:43;;;;;;;8.35;2.17;;;;;;;19.39;38.12;101704.75;5059451;28;20064;-58
2023/05/30 08:17:16;;;;;;;11.15;2.90;;;;;;;19.50;37.86;101706.59;5065131;28;20179;-60
2023/05/30 08:19:43;;;;;;;6.65;1.67;;;;;;;19.52;37.68;101714.47;5065702;28;20131;-60
2023/05/30 08:22:10;;;;;;;8.60;1.88;;;;;;;19.56;37.23;101705.25;5065672;28;20056;-59
2023/05/30 08:24:38;;;;;;;7.35;1.80;;;;;;;19.56;37.23;101705.25;5064872;28;20044;-62
2023/05/30 08:27:06;;;;;;;11.40;2.20;;;;;;;19.59;37.39;101707.69;5065771;28;20068;-60
2023/05/30 08:29:33;;;;;;;7.70;2.33;;;;;;;19.63;37.44;101702.00;5062486;28;20155;-60
2023/05/30 08:32:01;;;;;;;8.27;1.90;;;;;;;19.58;37.33;101701.47;5059187;28;20127;-57
2023/05/30 08:34:28;;;;;;;9.43;1.98;;;;;;;19.60;37.52;101696.03;5061356;28;20147;-58
2023/05/30 08:36:55;;;;;;;9.30;2.35;;;;;;;19.64;37.12;101701.03;5059751;28;20140;-60
2023/05/30 08:39:22;;;;;;;7.57;2.10;;;;;;;19.79;36.70;101703.44;5065156;28;20056;-64
2023/05/30 08:41:50;;;;;;;10.43;2.42;;;;;;;19.85;35.58;101711.78;5064921;28;20545;-58
2023/05/30 08:44:17;;;;;;;8.05;2.35;;;;;;;19.72;35.09;101709.28;5053250;28;20067;-59
2023/05/30 08:46:45;;;;;;;9.13;2.10;;;;;;;19.64;36.02;101714.41;5049980;28;20055;-63
2023/05/30 08:49:13;;;;;;;6.50;1.60;;;;;;;19.75;36.03;101708.19;5067499;28;20136;-60
2023/05/30 08:51:43;;;;;;;12.27;2.70;;;;;;;19.97;35.27;101720.66;5052989;28;20147;-61
2023/05/30 08:54:16;;;;;;;8.63;2.08;;;;;;;20.14;35.27;101722.81;5065997;28;20067;-62
2023/05/30 08:56:47;;;;;;;13.07;2.28;;;;;;;20.32;35.43;101714.25;5064403;28;20192;-61
2023/05/30 08:59:18;;;;;;;8.90;2.28;;;;;;;20.45;34.52;101709.59;5051345;28;20412;-59
2023/05/30 09:01:48;;;;;;;5.85;2.38;;;;;;;20.38;34.27;101705.72;5066241;28;20087;-59
2023/05/30 09:04:15;;;;;;;6.63;2.22;;;;;;;20.44;33.15;101715.88;5066476;28;20072;-59
2023/05/30 09:06:44;;;;;;;11.60;2.08;;;;;;;20.36;33.53;101715.69;5047768;28;20064;-59
2023/05/30 09:09:13;;;;;;;12.60;2.60;;;;;;;20.48;33.60;101717.34;5049931;28;20471;-61
2023/05/30 09:11:42;;;;;;;9.75;2.03;;;;;;;20.52;33.46;101717.97;5046298;28;20072;-61
2023/05/30 09:14:09;;;;;;;10.30;2.30;;;;;;;20.59;33.49;101711.97;5066603;28;20576;-59
2023/05/30 09:16:36;;;;;;;7.78;1.75;;;;;;;20.71;33.99;101708.28;5068158;28;20972;-60
2023/05/30 09:19:04;;;;;;;5.50;2.00;;;;;;;20.93;33.52;101717.13;5064866;28;20044;-60
2023/05/30 09:21:32;;;;;;;7.10;2.55;;;;;;;21.03;33.29;101715.38;5064349;28;20048;-58
2023/05/30 09:24:03;;;;;;;7.43;2.00;;;;;;;21.13;32.70;101707.41;5067021;28;20143;-58
2023/05/30 09:26:32;;;;;;;10.38;2.00;;;;;;;21.30;32.59;101713.94;5064067;28;20052;-60
2023/05/30 09:29:12;;;;;;;7.68;1.90;;;;;;;21.37;32.70;101717.84;5052159;28;20094;-61
2023/05/30 09:31:40;;;;;;;6.75;1.92;;;;;;;21.51;32.76;101720.16;5052530;28;20055;-60
2023/05/30 09:34:08;;;;;;;6.78;2.15;;;;;;;21.57;32.39;101719.63;5046619;28;20505;-59
2023/05/30 09:36:35;;;;;;;4.82;1.80;;;;;;;21.62;32.91;101712.03;5058674;28;20060;-60
2023/05/30 09:39:06;;;;;;;4.65;1.65;;;;;;;21.55;31.44;101716.22;5056814;28;20497;-59
2023/05/30 09:41:34;;;;;;;3.63;1.50;;;;;;;21.59;32.25;101725.69;5063929;28;20067;-60
2023/05/30 09:44:04;;;;;;;7.35;2.55;;;;;;;21.71;32.67;101727.28;5066932;28;20135;-59
2023/05/30 09:46:34;;;;;;;5.90;2.00;;;;;;;21.84;32.51;101729.75;5062489;28;20957;-60
2023/05/30 09:49:12;;;;;;;6.70;1.80;;;;;;;21.87;31.67;101729.44;5063255;28;20135;-60
2023/05/30 09:51:40;;;;;;;8.70;2.58;;;;;;;21.89;32.52;101723.97;5062309;28;20080;-61
2023/05/30 09:54:09;;;;;;;8.32;2.55;;;;;;;21.77;31.38;101720.53;5053592;28;20116;-60
2023/05/30 09:56:37;;;;;;;16.25;2.00;;;;;;;21.56;31.30;101723.28;5054595;28;20055;-59
2023/05/30 09:59:09;;;;;;;12.90;2.67;;;;;;;21.37;31.05;101732.06;5042329;28;20056;-61
2023/05/30 10:01:48;;;;;;;5.95;1.90;;;;;;;21.41;31.65;101720.13;5060725;28;20060;-59
2023/05/30 10:04:17;;;;;;;8.02;2.00;;;;;;;21.45;30.69;101724.22;5061929;28;20173;-58
2023/05/30 10:06:46;;;;;;;8.02;2.05;;;;;;;21.50;31.14;101721.13;5065522;28;20097;-59
2023/05/30 10:09:13;;;;;;;9.95;2.65;;;;;;;21.62;31.18;101721.91;5068090;28;20056;-59
2023/05/30 10:11:42;;;;;;;8.38;2.10;;;;;;;21.69;32.13;101717.69;5064435;28;20139;-59
2023/05/30 10:14:10;;;;;;;7.32;2.00;;;;;;;21.77;31.70;101723.22;5066868;28;20152;-60
2023/05/30 10:16:49;;;;;;;10.80;2.55;;;;;;;21.79;30.83;101723.91;5065205;28;20155;-60
2023/05/30 10:19:18;;;;;;;8.52;3.00;;;;;;;21.89;30.33;101718.59;5062055;28;20063;-57
2023/05/30 10:21:46;;;;;;;8.20;2.53;;;;;;;21.93;29.42;101720.00;5047988;28;20139;-60
2023/05/30 10:24:15;;;;;;;6.97;2.08;;;;;;;21.75;29.36;101711.78;5049092;28;20163;-59
2023/05/30 10:26:48;;;;;;;6.20;2.42;;;;;;;21.54;30.12;101714.53;5065868;28;20159;-60
2023/05/30 10:29:17;;;;;;;12.68;2.30;;;;;;;21.70;30.36;101714.00;5064361;28;20067;-59
2023/05/30 10:31:45;;;;;;;4.40;2.08;;;;;;;21.95;30.46;101718.03;5048564;28;20060;-59
2023/05/30 10:34:14;;;;;;;3.92;1.70;;;;;;;22.21;31.18;101716.56;5046065;28;20147;-58
2023/05/30 10:36:42;;;;;;;9.95;2.00;;;;;;;22.38;29.73;101711.47;5046222;28;20453;-61
2023/05/30 10:39:32;;;;;;;5.20;2.42;;;;;;;22.47;28.88;101714.19;5048494;28;20558;-60
2023/05/30 10:42:14;;;;;;;7.28;2.05;;;;;;;22.60;29.84;101710.34;5063435;28;20056;-60
2023/05/30 10:44:54;;;;;;;4.95;1.80;;;;;;;22.69;29.13;101715.69;5048283;28;20044;-60
2023/05/30 10:47:56;;;;;;;11.32;2.55;;;;;;;22.67;28.91;101709.66;5048211;28;20505;-59
2023/05/30 10:50:27;;;;;;;7.22;1.80;;;;;;;22.69;28.15;101713.03;5064208;28;20068;-61
2023/05/30 10:52:55;;;;;;;8.77;2.25;;;;;;;22.70;27.37;101711.22;5045518;28;20121;-60
2023/05/30 10:55:24;;;;;;;6.38;2.22;;;;;;;22.78;27.44;101703.25;5068010;28;20052;-59
2023/05/30 10:57:52;;;;;;;8.30;1.88;;;;;;;22.96;28.24;101706.94;5067113;28;20053;-58
2023/05/30 11:00:24;;;;;;;5.18;1.90;;;;;;;23.20;27.67;101708.31;5064289;28;20049;-60
2023/05/30 11:02:54;;;;;;;5.03;2.15;;;;;;;23.48;27.79;101709.19;5043367;28;20135;-59
2023/05/30 11:05:27;;;;;;;6.63;1.70;;;;;;;23.75;27.50;101700.31;5065265;28;20485;-60
2023/05/30 11:07:57;;;;;;;5.65;1.75;;;;;;;24.00;27.50;101706.78;5062590;28;20171;-60
2023/05/30 11:10:28;;;;;;;7.90;2.13;;;;;;;24.14;26.81;101706.28;5055677;28;20050;-61
2023/05/30 11:13:09;;;;;;;6.00;2.20;;;;;;;24.20;26.93;101707.53;5062400;28;20527;-59
2023/05/30 11:15:43;;;;;;;4.97;1.80;;;;;;;24.35;26.98;101707.81;5064685;28;20048;-61
2023/05/30 11:18:15;;;;;;;5.05;2.25;;;;;;;24.40;26.83;101709.06;5061924;28;20080;-61
2023/05/30 11:20:55;;;;;;;4.93;1.83;;;;;;;24.37;26.70;101708.56;5063573;28;20066;-60
2023/05/30 11:23:23;;;;;;;8.20;2.10;;;;;;;24.44;27.19;101709.63;5062894;28;20068;-61
2023/05/30 11:25:56;;;;;;;7.65;2.38;;;;;;;24.62;27.45;101720.38;5065160;28;20080;-61
2023/05/30 11:28:34;;;;;;;7.93;1.80;;;;;;;24.76;26.72;101712.56;5064758;28;20143;-61
2023/05/30 11:31:16;;;;;;;5.22;1.77;;;;;;;24.38;25.61;101705.72;5063396;28;20294;-60
2023/05/30 11:33:46;;;;;;;5.32;1.83;;;;;;;24.20;26.10;101699.44;5062614;28;20106;-61